Time;durP1;ratioP1;P1;durP2;ratioP2;P2;SDS_P1;SDS_P2;PMS_P1;PMS_P2;Temp;Humidity;BMP_temperature;BMP_pressure;BME280_temperature;BME280_humidity;BME280_pressure;Samples;Min_cycle;Max_cycle;Signal;HPM_P1;HPM_P2
2022/08/05 00:00:43;;;;;;;;;;;;;;;22.68;54.26;100266.19;5014618;28;20443;-70
2022/08/05 00:03:09;;;;;;;;;;;;;;;22.61;54.80;100282.66;5030243;28;19929;-71
2022/08/05 00:05:36;;;;;;;;;;;;;;;22.56;55.24;100268.94;5030765;28;19936;-69
2022/08/05 00:08:02;;;;;;;;;;;;;;;22.54;55.63;100271.25;5031280;28;20036;-69
2022/08/05 00:10:28;;;;;;;;;;;;;;;22.52;55.72;100271.59;5030671;28;20125;-71
2022/08/05 00:12:54;;;;;;;;;;;;;;;22.46;55.82;100268.19;5049032;28;20309;-66
2022/08/05 00:15:19;;;;;;;;;;;;;;;22.45;56.16;100266.56;5047123;28;19966;-68
2022/08/05 00:17:45;;;;;;;;;;;;;;;22.44;55.78;100269.72;5047491;28;20399;-70
2022/08/05 00:20:11;;;;;;;;;;;;;;;22.37;56.18;100271.06;5046863;28;19932;-66
2022/08/05 00:22:38;;;;;;;;;;;;;;;22.38;56.23;100271.88;5051068;28;19935;-67
2022/08/05 00:25:04;;;;;;;;;;;;;;;22.39;56.24;100268.75;5049808;28;20397;-67
2022/08/05 00:27:30;;;;;;;;;;;;;;;22.39;56.13;100273.53;5030504;28;19929;-67
2022/08/05 00:29:56;;;;;;;;;;;;;;;22.37;56.35;100275.84;5029650;28;20288;-70
2022/08/05 00:32:22;;;;;;;;;;;;;;;22.39;56.30;100267.94;5032049;28;19979;-71
2022/08/05 00:34:47;;;;;;;;;;;;;;;22.32;56.30;100270.47;5030682;28;19951;-71
2022/08/05 00:37:13;;;;;;;;;;;;;;;22.27;56.27;100267.91;5029249;28;19929;-70
2022/08/05 00:39:43;;;;;;;;;;;;;;;22.28;56.99;100270.34;5011393;28;19932;-70
2022/08/05 00:42:09;;;;;;;;;;;;;;;22.26;56.97;100272.69;5046576;28;19936;-70
2022/08/05 00:44:34;;;;;;;;;;;;;;;22.28;57.29;100263.97;5065831;28;19929;-69
2022/08/05 00:47:00;;;;;;;;;;;;;;;22.28;56.92;100272.31;5068468;28;19929;-70
2022/08/05 00:49:26;;;;;;;;;;;;;;;22.23;56.72;100265.81;5035088;28;19928;-70
2022/08/05 00:51:52;;;;;;;;;;;;;;;22.19;57.23;100264.06;5069012;28;19929;-69
2022/08/05 00:54:17;;;;;;;;;;;;;;;22.18;57.30;100268.00;5063721;28;19932;-69
2022/08/05 00:56:44;;;;;;;;;;;;;;;22.16;57.37;100264.75;5047150;28;19933;-70
2022/08/05 00:59:10;;;;;;;;;;;;;;;22.16;57.41;100261.97;5067719;28;19929;-71
2022/08/05 01:01:36;;;;;;;;;;;;;;;22.14;57.39;100264.28;5048421;28;20402;-70
2022/08/05 01:04:02;;;;;;;;;;;;;;;22.13;57.61;100263.44;5062630;28;19932;-71
2022/08/05 01:06:27;;;;;;;;;;;;;;;22.13;57.57;100260.66;5066262;28;20481;-69
2022/08/05 01:08:53;;;;;;;;;;;;;;;22.15;58.00;100274.25;5066503;28;19937;-70
2022/08/05 01:11:20;;;;;;;;;;;;;;;22.14;57.84;100273.41;5049229;28;19928;-70
2022/08/05 01:13:55;;;;;;;;;;;;;;;22.14;57.71;100269.84;5067587;28;20022;-70
2022/08/05 01:16:23;;;;;;;;;;;;;;;22.08;58.03;100263.66;5048690;28;19935;-70
2022/08/05 01:18:50;;;;;;;;;;;;;;;22.04;57.86;100274.66;5065781;28;20581;-69
2022/08/05 01:21:24;;;;;;;;;;;;;;;21.98;57.93;100264.91;5048412;28;20303;-70
2022/08/05 01:23:56;;;;;;;;;;;;;;;21.95;58.20;100266.38;5066161;28;20425;-69
2022/08/05 01:26:36;;;;;;;;;;;;;;;21.91;57.75;100267.41;5065405;28;19967;-69
2022/08/05 01:29:07;;;;;;;;;;;;;;;21.89;58.42;100272.50;5049341;28;19928;-72
2022/08/05 01:31:34;;;;;;;;;;;;;;;21.91;58.17;100264.63;5049552;28;20306;-69
2022/08/05 01:34:03;;;;;;;;;;;;;;;21.90;58.21;100274.97;5066785;28;19975;-69
2022/08/05 01:36:31;;;;;;;;;;;;;;;21.91;57.93;100268.25;5066462;28;19928;-71
2022/08/05 01:38:58;;;;;;;;;;;;;;;21.90;58.07;100266.63;5068389;28;20485;-70
2022/08/05 01:41:26;;;;;;;;;;;;;;;21.94;58.33;100272.31;5068412;28;20015;-70
2022/08/05 01:43:52;;;;;;;;;;;;;;;21.95;58.49;100268.38;5067044;28;19943;-71
2022/08/05 01:46:20;;;;;;;;;;;;;;;21.96;58.20;100270.81;5066928;28;19928;-71
2022/08/05 01:48:47;;;;;;;;;;;;;;;22.00;57.93;100268.16;5047013;28;20413;-70
2022/08/05 01:51:13;;;;;;;;;;;;;;;22.00;58.04;100257.03;5045563;28;19929;-69
2022/08/05 01:53:40;;;;;;;;;;;;;;;22.01;58.50;100268.97;5066436;28;19958;-68
2022/08/05 01:56:06;;;;;;;;;;;;;;;21.99;58.38;100268.50;5067885;28;19928;-65
2022/08/05 01:58:33;;;;;;;;;;;;;;;21.95;58.98;100263.59;5018522;28;19987;-67
2022/08/05 02:00:59;;;;;;;;;;;;;;;22.00;59.10;100268.16;5011502;28;20396;-71
2022/08/05 02:03:28;;;;;;;;;;;;;;;22.00;59.07;100267.34;5045754;28;20031;-71
2022/08/05 02:05:54;;;;;;;;;;;;;;;21.98;59.21;100269.66;5041883;28;20467;-69
2022/08/05 02:08:20;;;;;;;;;;;;;;;21.99;59.36;100266.53;5028238;28;20022;-70
2022/08/05 02:10:47;;;;;;;;;;;;;;;22.01;59.49;100277.31;5027005;28;19936;-69
2022/08/05 02:13:15;;;;;;;;;;;;;;;22.03;59.63;100266.69;4993539;28;19936;-70
2022/08/05 02:15:42;;;;;;;;;;;;;;;22.04;60.03;100269.09;5011386;28;20239;-71
2022/08/05 02:18:12;;;;;;;;;;;;;;;22.07;59.87;100271.19;5046348;28;20354;-71
2022/08/05 02:20:44;;;;;;;;;;;;;;;22.08;60.05;100261.69;5046428;28;20031;-71
2022/08/05 02:23:10;;;;;;;;;;;;;;;22.09;60.23;100279.22;5027617;28;19932;-69
2022/08/05 02:25:38;;;;;;;;;;;;;;;22.09;59.83;100282.00;5043988;28;19932;-70
2022/08/05 02:28:06;;;;;;;;;;;;;;;22.10;60.03;100283.63;5044949;28;19928;-71
2022/08/05 02:30:37;;;;;;;;;;;;;;;22.09;59.75;100293.97;5060497;28;19928;-66
2022/08/05 02:33:03;;;;;;;;;;;;;;;22.04;59.98;100290.56;5065405;28;20395;-67
2022/08/05 02:35:32;;;;;;;;;;;;;;;22.01;59.83;100291.22;5065478;28;19994;-65
2022/08/05 02:38:00;;;;;;;;;;;;;;;22.01;59.87;100296.78;5048441;28;20395;-67
2022/08/05 02:40:26;;;;;;;;;;;;;;;22.03;59.92;100295.31;5063547;28;20095;-67
2022/08/05 02:42:52;;;;;;;;;;;;;;;22.05;59.87;100298.56;5066153;28;19928;-67
2022/08/05 02:45:19;;;;;;;;;;;;;;;22.05;60.30;100301.34;5065539;28;19934;-66
2022/08/05 02:47:45;;;;;;;;;;;;;;;22.06;59.93;100308.53;5050861;28;19935;-67
2022/08/05 02:50:12;;;;;;;;;;;;;;;22.06;60.07;100305.75;5068048;28;19928;-67
2022/08/05 02:52:39;;;;;;;;;;;;;;;22.08;59.93;100305.44;5052484;28;19928;-68
2022/08/05 02:55:07;;;;;;;;;;;;;;;22.06;59.77;100299.38;5071934;28;19928;-67
2022/08/05 02:57:33;;;;;;;;;;;;;;;22.05;59.83;100312.47;5068339;28;19928;-67
2022/08/05 02:59:59;;;;;;;;;;;;;;;22.04;59.63;100299.72;5053563;28;19936;-66
2022/08/05 03:02:27;;;;;;;;;;;;;;;22.05;59.52;100303.34;5050289;28;19929;-66
2022/08/05 03:04:54;;;;;;;;;;;;;;;22.07;59.24;100312.16;5066765;28;19928;-66
2022/08/05 03:07:20;;;;;;;;;;;;;;;22.02;59.35;100307.59;5051670;28;19982;-66
2022/08/05 03:09:46;;;;;;;;;;;;;;;21.99;59.49;100313.03;5066615;28;20353;-67
2022/08/05 03:12:26;;;;;;;;;;;;;;;21.92;59.50;100311.63;5066190;28;19986;-65
2022/08/05 03:14:53;;;;;;;;;;;;;;;21.93;60.11;100315.19;5067667;28;19985;-66
2022/08/05 03:17:19;;;;;;;;;;;;;;;21.93;59.83;100313.25;5071328;28;19929;-66
2022/08/05 03:19:45;;;;;;;;;;;;;;;21.92;59.71;100314.41;5047218;28;20490;-67
2022/08/05 03:22:11;;;;;;;;;;;;;;;21.93;59.92;100316.03;5050973;28;20039;-68
2022/08/05 03:24:36;;;;;;;;;;;;;;;21.94;59.84;100320.44;5066411;28;19959;-66
2022/08/05 03:27:02;;;;;;;;;;;;;;;21.95;59.69;100318.47;5049610;28;19928;-69
2022/08/05 03:29:28;;;;;;;;;;;;;;;21.98;60.07;100325.31;5049881;28;19935;-70
2022/08/05 03:31:56;;;;;;;;;;;;;;;22.02;60.09;100324.31;5069799;28;20391;-70
2022/08/05 03:34:21;;;;;;;;;;;;;;;22.04;60.23;100323.97;5065939;28;19936;-70
2022/08/05 03:36:47;;;;;;;;;;;;;;;22.04;60.26;100329.53;5051137;28;19932;-71
2022/08/05 03:39:13;;;;;;;;;;;;;;;22.02;60.12;100335.44;5067260;28;19975;-70
2022/08/05 03:41:38;;;;;;;;;;;;;;;22.03;60.40;100333.47;5047073;28;20062;-70
2022/08/05 03:44:04;;;;;;;;;;;;;;;22.07;60.34;100343.56;5065069;28;19932;-70
2022/08/05 03:46:30;;;;;;;;;;;;;;;22.09;59.94;100346.84;5050262;28;20410;-71
2022/08/05 03:48:58;;;;;;;;;;;;;;;22.12;59.96;100350.91;5067503;28;19935;-70
2022/08/05 03:51:27;;;;;;;;;;;;;;;22.15;60.31;100349.44;5050160;28;19981;-71
2022/08/05 03:53:56;;;;;;;;;;;;;;;22.20;60.10;100352.00;5067907;28;19929;-71
2022/08/05 03:56:25;;;;;;;;;;;;;;;22.27;59.87;100357.00;5051646;28;19933;-70
2022/08/05 03:58:52;;;;;;;;;;;;;;;22.33;59.91;100355.66;5050816;28;19937;-70
2022/08/05 04:01:19;;;;;;;;;;;;;;;22.40;59.77;100358.72;5031555;28;19975;-71
2022/08/05 04:03:46;;;;;;;;;;;;;;;22.49;59.44;100359.47;5048441;28;19929;-70
2022/08/05 04:06:14;;;;;;;;;;;;;;;22.49;59.19;100347.50;5032244;28;19972;-71
2022/08/05 04:08:41;;;;;;;;;;;;;;;22.60;59.17;100356.25;5029993;28;19932;-70
2022/08/05 04:11:07;;;;;;;;;;;;;;;22.66;58.82;100358.47;5049247;28;19928;-70
2022/08/05 04:13:33;;;;;;;;;;;;;;;22.75;59.05;100352.00;5028448;28;19928;-70
2022/08/05 04:15:58;;;;;;;;;;;;;;;22.84;58.78;100357.47;5047118;28;19935;-70
2022/08/05 04:18:24;;;;;;;;;;;;;;;22.94;58.40;100355.06;5047672;28;19936;-69
2022/08/05 04:20:53;;;;;;;;;;;;;;;23.05;58.23;100366.56;5046928;28;20434;-70
2022/08/05 04:23:22;;;;;;;;;;;;;;;23.15;57.98;100370.88;5029118;28;19929;-70
2022/08/05 04:25:47;;;;;;;;;;;;;;;23.19;57.92;100363.47;5046645;28;19929;-71
2022/08/05 04:28:14;;;;;;;;;;;;;;;23.26;58.04;100371.28;5016903;28;19980;-71
2022/08/05 04:30:39;;;;;;;;;;;;;;;23.34;57.60;100369.56;5049379;28;20402;-70
2022/08/05 04:33:05;;;;;;;;;;;;;;;23.42;56.94;100367.81;5048359;28;19929;-70
2022/08/05 04:35:31;;;;;;;;;;;;;;;23.46;56.86;100372.31;5030622;28;19935;-71
2022/08/05 04:37:56;;;;;;;;;;;;;;;23.53;56.43;100365.38;5031326;28;19929;-70
2022/08/05 04:40:24;;;;;;;;;;;;;;;23.58;56.30;100368.75;5046021;28;19935;-70
2022/08/05 04:42:50;;;;;;;;;;;;;;;23.64;56.05;100358.94;5027708;28;20535;-69
2022/08/05 04:45:15;;;;;;;;;;;;;;;23.68;55.50;100361.88;5045881;28;20031;-70
2022/08/05 04:47:41;;;;;;;;;;;;;;;23.71;55.49;100361.16;5047729;28;19936;-70
2022/08/05 04:50:07;;;;;;;;;;;;;;;23.75;55.05;100366.84;5047890;28;20392;-71
2022/08/05 04:52:33;;;;;;;;;;;;;;;23.76;54.75;100351.72;5065589;28;19968;-72
2022/08/05 04:54:58;;;;;;;;;;;;;;;23.83;55.10;100357.53;5047651;28;20006;-71
2022/08/05 04:57:26;;;;;;;;;;;;;;;23.91;55.04;100364.13;5066363;28;20376;-70
2022/08/05 04:59:51;;;;;;;;;;;;;;;24.00;54.55;100358.41;5065056;28;19928;-71
2022/08/05 05:02:17;;;;;;;;;;;;;;;24.07;54.40;100364.25;5067585;28;19934;-69
2022/08/05 05:04:43;;;;;;;;;;;;;;;24.08;53.49;100368.69;5066944;28;19928;-70
2022/08/05 05:07:08;;;;;;;;;;;;;;;24.17;52.88;100358.16;5066586;28;19928;-70
2022/08/05 05:09:34;;;;;;;;;;;;;;;24.27;52.53;100359.63;5066959;28;19928;-70
2022/08/05 05:12:00;;;;;;;;;;;;;;;24.30;52.11;100367.31;5065403;28;20107;-69
2022/08/05 05:14:27;;;;;;;;;;;;;;;24.35;51.79;100366.25;5048090;28;20069;-71
2022/08/05 05:16:53;;;;;;;;;;;;;;;24.43;51.60;100365.28;5066050;28;19935;-71
2022/08/05 05:19:19;;;;;;;;;;;;;;;24.44;51.21;100368.91;5033760;28;20039;-70
2022/08/05 05:21:44;;;;;;;;;;;;;;;24.43;50.41;100365.28;5066549;28;19951;-71
2022/08/05 05:24:10;;;;;;;;;;;;;;;24.47;50.59;100369.00;5050953;28;19928;-70
2022/08/05 05:26:36;;;;;;;;;;;;;;;24.53;50.49;100360.38;5069003;28;19971;-70
2022/08/05 05:29:01;;;;;;;;;;;;;;;24.61;50.15;100362.16;5066546;28;19928;-70
2022/08/05 05:31:29;;;;;;;;;;;;;;;24.71;49.95;100366.44;5068275;28;20310;-70
2022/08/05 05:33:54;;;;;;;;;;;;;;;24.81;49.50;100370.72;5068836;28;19935;-71
2022/08/05 05:36:20;;;;;;;;;;;;;;;24.85;49.12;100371.63;5068376;28;19929;-70
2022/08/05 05:38:46;;;;;;;;;;;;;;;24.90;49.11;100374.16;5049235;28;19955;-71
2022/08/05 05:41:11;;;;;;;;;;;;;;;24.89;49.02;100372.53;5048948;28;19929;-70
2022/08/05 05:43:37;;;;;;;;;;;;;;;24.89;48.71;100375.34;5062356;28;19936;-71
2022/08/05 05:46:03;;;;;;;;;;;;;;;24.91;48.64;100367.41;5058999;28;19975;-70
2022/08/05 05:48:30;;;;;;;;;;;;;;;24.99;48.39;100363.63;5048956;28;19935;-70
2022/08/05 05:50:56;;;;;;;;;;;;;;;25.12;48.24;100369.13;5050434;28;19933;-70
2022/08/05 05:53:22;;;;;;;;;;;;;;;25.26;47.72;100371.47;5046889;28;19955;-70
2022/08/05 05:55:47;;;;;;;;;;;;;;;25.26;47.59;100365.88;5061872;28;20268;-70
2022/08/05 05:58:13;;;;;;;;;;;;;;;25.33;47.40;100368.84;5049601;28;19971;-70
2022/08/05 06:00:39;;;;;;;;;;;;;;;25.46;47.10;100375.97;5067813;28;19928;-70
2022/08/05 06:03:04;;;;;;;;;;;;;;;25.57;46.82;100375.44;5068315;28;19935;-70
2022/08/05 06:05:32;;;;;;;;;;;;;;;25.67;46.46;100374.88;5066856;28;20023;-70
2022/08/05 06:07:57;;;;;;;;;;;;;;;25.71;46.14;100373.00;5063717;28;20349;-70
2022/08/05 06:10:23;;;;;;;;;;;;;;;25.77;46.02;100379.13;5032173;28;19936;-71
2022/08/05 06:12:49;;;;;;;;;;;;;;;25.96;45.83;100381.13;5029667;28;19928;-71
2022/08/05 06:15:15;;;;;;;;;;;;;;;26.14;45.29;100373.13;5055362;28;19981;-71
2022/08/05 06:17:41;;;;;;;;;;;;;;;26.35;44.35;100371.97;5046874;28;20350;-70
2022/08/05 06:20:07;;;;;;;;;;;;;;;26.58;43.68;100377.63;5042817;28;19936;-69
2022/08/05 06:22:34;;;;;;;;;;;;;;;26.83;43.10;100373.69;5060781;28;20115;-70
2022/08/05 06:25:00;;;;;;;;;;;;;;;26.86;43.47;100384.19;5059684;28;19929;-69
2022/08/05 06:27:26;;;;;;;;;;;;;;;26.98;42.76;100384.00;5065722;28;19940;-70
2022/08/05 06:29:52;;;;;;;;;;;;;;;27.07;42.49;100380.94;5052437;28;19952;-71
2022/08/05 06:32:18;;;;;;;;;;;;;;;27.04;42.24;100378.88;5046946;28;19952;-71
2022/08/05 06:34:44;;;;;;;;;;;;;;;27.04;42.41;100390.13;5085836;28;19928;-70
2022/08/05 06:37:09;;;;;;;;;;;;;;;26.92;42.63;100379.91;5071296;28;19928;-70
2022/08/05 06:39:38;;;;;;;;;;;;;;;26.87;42.96;100380.22;5032277;28;19932;-71
2022/08/05 06:42:04;;;;;;;;;;;;;;;27.00;42.48;100381.63;5042017;28;19936;-70
2022/08/05 06:44:30;;;;;;;;;;;;;;;26.96;42.44;100391.97;5046865;28;20126;-71
2022/08/05 06:46:56;;;;;;;;;;;;;;;26.80;42.72;100380.03;5066783;28;20024;-66
2022/08/05 06:49:23;;;;;;;;;;;;;;;26.85;42.75;100388.97;5063085;28;19932;-67
2022/08/05 06:51:49;;;;;;;;;;;;;;;27.00;42.74;100387.25;5068831;28;20241;-68
2022/08/05 06:54:14;;;;;;;;;;;;;;;27.17;42.01;100382.34;5064356;28;19979;-69
2022/08/05 06:56:41;;;;;;;;;;;;;;;27.16;42.14;100389.94;5037613;28;20009;-68
2022/08/05 06:59:08;;;;;;;;;;;;;;;27.32;41.74;100386.19;5064291;28;19933;-71
2022/08/05 07:01:34;;;;;;;;;;;;;;;27.42;41.65;100387.53;5066341;28;20403;-69
2022/08/05 07:04:00;;;;;;;;;;;;;;;27.61;41.41;100386.69;5053788;28;19936;-69
2022/08/05 07:06:26;;;;;;;;;;;;;;;27.72;40.88;100386.84;5044807;28;19929;-69
2022/08/05 07:08:52;;;;;;;;;;;;;;;27.74;40.71;100388.09;5040641;28;19939;-72
2022/08/05 07:11:18;;;;;;;;;;;;;;;27.81;40.24;100381.75;5033422;28;19928;-71
2022/08/05 07:16:51;;;;;;;;;;;;;;;27.98;40.20;100382.38;5056384;28;19979;-72
2022/08/05 07:19:17;;;;;;;;;;;;;;;27.85;39.99;100384.59;5067212;28;19929;-70
2022/08/05 07:21:43;;;;;;;;;;;;;;;27.84;39.99;100378.19;5066642;28;19982;-69
2022/08/05 07:24:09;;;;;;;;;;;;;;;27.97;39.64;100386.38;5058254;28;19928;-66
2022/08/05 07:26:34;;;;;;;;;;;;;;;28.12;39.40;100388.22;5050145;28;19939;-70
2022/08/05 07:29:01;;;;;;;;;;;;;;;28.22;39.04;100380.31;5041478;28;19964;-70
2022/08/05 07:31:27;;;;;;;;;;;;;;;28.20;38.99;100383.50;5067591;28;19974;-70
2022/08/05 07:33:53;;;;;;;;;;;;;;;28.34;38.41;100382.09;5057644;28;19932;-69
2022/08/05 07:36:19;;;;;;;;;;;;;;;28.26;38.08;100379.16;5051135;28;20301;-70
2022/08/05 07:38:44;;;;;;;;;;;;;;;28.19;38.31;100375.44;5060754;28;20027;-67
2022/08/05 07:41:11;;;;;;;;;;;;;;;28.46;38.47;100379.00;5067762;28;20039;-67
2022/08/05 07:43:37;;;;;;;;;;;;;;;28.90;37.54;100377.50;5071368;28;20300;-67
2022/08/05 07:46:04;;;;;;;;;;;;;;;29.12;35.98;100381.31;5045397;28;19929;-67
2022/08/05 07:48:30;;;;;;;;;;;;;;;29.10;36.10;100371.63;5060996;28;19928;-68
2022/08/05 07:50:55;;;;;;;;;;;;;;;29.18;36.00;100372.50;5061681;28;19944;-67
2022/08/05 07:53:21;;;;;;;;;;;;;;;29.29;35.55;100377.03;5056985;28;19928;-65
2022/08/05 07:55:47;;;;;;;;;;;;;;;29.36;35.20;100370.63;5046199;28;19974;-69
2022/08/05 07:58:13;;;;;;;;;;;;;;;29.48;34.80;100378.00;5059316;28;20027;-73
2022/08/05 08:00:38;;;;;;;;;;;;;;;29.52;35.38;100366.75;5058155;28;19929;-69
2022/08/05 08:03:10;;;;;;;;;;;;;;;29.62;35.17;100359.56;5065909;28;19928;-71
2022/08/05 08:05:36;;;;;;;;;;;;;;;29.63;34.66;100367.66;5065132;28;19928;-70
2022/08/05 08:08:02;;;;;;;;;;;;;;;29.81;34.40;100364.13;5067798;28;19936;-69
2022/08/05 08:10:28;;;;;;;;;;;;;;;29.93;33.94;100362.97;5055364;28;19933;-70
2022/08/05 08:12:54;;;;;;;;;;;;;;;30.48;32.98;100362.00;5064640;28;20202;-70
2022/08/05 08:15:21;;;;;;;;;;;;;;;30.68;32.66;100356.06;5058829;28;19967;-68
2022/08/05 08:17:46;;;;;;;;;;;;;;;30.99;31.73;100357.31;5057865;28;20368;-67
2022/08/05 08:20:14;;;;;;;;;;;;;;;31.21;31.17;100359.34;5043747;28;19932;-67
2022/08/05 08:22:39;;;;;;;;;;;;;;;31.12;31.17;100363.34;5065736;28;20019;-68
2022/08/05 08:25:05;;;;;;;;;;;;;;;31.01;31.25;100358.91;5067044;28;20036;-67
2022/08/05 08:27:31;;;;;;;;;;;;;;;31.20;30.84;100358.50;5044335;28;19971;-66
2022/08/05 08:29:57;;;;;;;;;;;;;;;31.55;30.54;100362.56;5062974;28;19932;-66
2022/08/05 08:32:23;;;;;;;;;;;;;;;31.80;30.29;100360.91;5063796;28;20370;-67
2022/08/05 08:34:49;;;;;;;;;;;;;;;31.77;30.39;100370.19;5063173;28;20363;-66
2022/08/05 08:37:16;;;;;;;;;;;;;;;31.69;30.76;100364.53;5057777;28;19933;-66
2022/08/05 08:39:42;;;;;;;;;;;;;;;31.86;30.51;100352.81;5063656;28;19994;-68
2022/08/05 08:42:08;;;;;;;;;;;;;;;32.52;29.82;100365.47;5062159;28;19928;-67
2022/08/05 08:44:34;;;;;;;;;;;;;;;32.77;29.28;100353.19;5050155;28;20008;-66
2022/08/05 08:47:01;;;;;;;;;;;;;;;33.14;28.80;100363.06;5067774;28;19928;-66
2022/08/05 08:49:29;;;;;;;;;;;;;;;33.28;27.44;100341.50;5066770;28;19955;-67
2022/08/05 08:51:57;;;;;;;;;;;;;;;33.29;27.56;100352.38;5049305;28;20406;-67
2022/08/05 08:54:25;;;;;;;;;;;;;;;33.44;26.87;100343.78;5043679;28;19935;-64
2022/08/05 08:56:50;;;;;;;;;;;;;;;33.69;26.46;100354.06;5065016;28;19928;-67
2022/08/05 08:59:16;;;;;;;;;;;;;;;33.72;26.68;100356.03;5066257;28;19928;-67
2022/08/05 09:01:44;;;;;;;;;;;;;;;33.82;26.55;100357.97;5058769;28;19993;-67
2022/08/05 09:04:11;;;;;;;;;;;;;;;34.32;25.70;100358.59;5061802;28;19947;-68
2022/08/05 09:06:37;;;;;;;;;;;;;;;35.15;24.86;100346.03;5062741;28;19932;-65
2022/08/05 09:09:03;;;;;;;;;;;;;;;35.72;23.85;100345.41;5063873;28;19932;-67
2022/08/05 09:11:32;;;;;;;;;;;;;;;35.79;23.91;100347.31;5046765;28;19928;-67
2022/08/05 09:13:58;;;;;;;;;;;;;;;35.67;24.62;100343.88;5056742;28;20771;-70
2022/08/05 09:16:24;;;;;;;;;;;;;;;35.72;24.03;100345.41;5064145;28;20023;-69
2022/08/05 09:18:49;;;;;;;;;;;;;;;35.74;23.39;100348.63;5060886;28;20023;-69
2022/08/05 09:21:15;;;;;;;;;;;;;;;35.72;23.30;100343.38;5056907;28;19932;-69
2022/08/05 09:23:43;;;;;;;;;;;;;;;35.67;23.91;100337.38;5064555;28;19933;-66
2022/08/05 09:26:10;;;;;;;;;;;;;;;35.89;23.42;100340.59;5062098;28;19928;-67
2022/08/05 09:28:38;;;;;;;;;;;;;;;36.18;22.38;100337.19;5058703;28;20421;-66
2022/08/05 09:31:05;;;;;;;;;;;;;;;36.19;21.86;100336.75;5045146;28;20035;-67
2022/08/05 09:33:31;;;;;;;;;;;;;;;36.50;21.85;100341.34;5061044;28;20055;-71
2022/08/05 09:35:58;;;;;;;;;;;;;;;36.82;21.57;100331.25;5060295;28;20045;-68
2022/08/05 09:38:24;;;;;;;;;;;;;;;36.76;21.89;100333.03;5055136;28;20306;-70
2022/08/05 09:40:49;;;;;;;;;;;;;;;36.79;21.86;100326.44;5065143;28;19929;-71
2022/08/05 09:43:33;;;;;;;;;;;;;;;37.31;21.49;100321.06;5064735;28;20322;-71
2022/08/05 09:46:01;;;;;;;;;;;;;;;37.45;21.35;100326.38;5053936;28;20663;-70
2022/08/05 09:48:28;;;;;;;;;;;;;;;37.22;21.68;100320.94;5057201;28;19939;-69
2022/08/05 09:50:55;;;;;;;;;;;;;;;37.40;21.82;100321.25;5064279;28;19929;-70
2022/08/05 09:53:21;;;;;;;;;;;;;;;37.40;21.67;100320.47;5062824;28;20346;-70
2022/08/05 09:55:49;;;;;;;;;;;;;;;37.35;22.10;100321.81;5064634;28;20047;-69
2022/08/05 09:58:15;;;;;;;;;;;;;;;38.10;21.10;100323.78;5065839;28;20338;-70
2022/08/05 10:00:51;;;;;;;;;;;;;;;38.22;21.06;100318.56;5048059;28;19928;-70
2022/08/05 10:03:18;;;;;;;;;;;;;;;36.77;22.70;100317.56;5061618;28;20362;-71
2022/08/05 10:05:44;;;;;;;;;;;;;;;35.81;23.87;100316.41;5037358;28;20179;-69
2022/08/05 10:08:10;;;;;;;;;;;;;;;36.10;23.91;100315.84;5028556;28;20386;-70
2022/08/05 10:10:36;;;;;;;;;;;;;;;36.70;23.37;100312.06;5059213;28;19928;-70
2022/08/05 10:13:03;;;;;;;;;;;;;;;37.22;22.44;100315.25;5061713;28;20445;-69
2022/08/05 10:15:30;;;;;;;;;;;;;;;37.85;21.89;100307.41;5040199;28;20414;-72
2022/08/05 10:18:04;;;;;;;;;;;;;;;38.64;21.13;100309.09;5051803;28;19936;-71
2022/08/05 10:20:33;;;;;;;;;;;;;;;38.49;21.26;100317.34;5039075;28;19933;-69
2022/08/05 10:22:59;;;;;;;;;;;;;;;38.39;21.45;100313.53;5059533;28;19928;-70
2022/08/05 10:25:25;;;;;;;;;;;;;;;38.36;21.56;100320.16;5039194;28;19928;-71
2022/08/05 10:27:52;;;;;;;;;;;;;;;38.92;20.82;100306.56;5041146;28;19936;-70
2022/08/05 10:30:18;;;;;;;;;;;;;;;39.00;20.49;100311.59;5038609;28;19929;-71
2022/08/05 10:32:45;;;;;;;;;;;;;;;39.38;20.31;100303.34;5063422;28;19933;-71
2022/08/05 10:35:10;;;;;;;;;;;;;;;39.90;19.41;100309.63;5060468;28;19942;-70
2022/08/05 10:37:38;;;;;;;;;;;;;;;39.87;19.58;100301.19;5063455;28;19928;-70
2022/08/05 10:40:06;;;;;;;;;;;;;;;39.70;19.75;100295.66;5048044;28;19935;-70
2022/08/05 10:42:37;;;;;;;;;;;;;;;38.84;20.84;100295.34;5045018;28;19995;-71
2022/08/05 10:45:04;;;;;;;;;;;;;;;37.82;22.14;100303.41;5058750;28;20406;-70
2022/08/05 10:47:31;;;;;;;;;;;;;;;38.01;21.76;100309.38;5066691;28;19964;-70
2022/08/05 10:50:01;;;;;;;;;;;;;;;37.52;22.31;100307.53;5042377;28;20458;-69
2022/08/05 10:52:41;;;;;;;;;;;;;;;36.46;23.35;100295.91;5009163;28;19928;-66
2022/08/05 10:55:08;;;;;;;;;;;;;;;35.40;24.89;100299.28;5048829;28;19935;-65
2022/08/05 10:57:34;;;;;;;;;;;;;;;35.26;24.61;100296.72;5065608;28;19977;-66
2022/08/05 11:00:09;;;;;;;;;;;;;;;35.91;24.45;100301.16;5064155;28;20014;-65
2022/08/05 11:02:35;;;;;;;;;;;;;;;36.79;23.47;100291.50;5061340;28;20023;-66
2022/08/05 11:05:03;;;;;;;;;;;;;;;38.05;22.11;100292.97;5061466;28;20034;-68
2022/08/05 11:07:30;;;;;;;;;;;;;;;38.38;21.80;100289.09;5062373;28;19928;-66
2022/08/05 11:10:00;;;;;;;;;;;;;;;37.63;22.51;100285.22;5063583;28;19928;-65
2022/08/05 11:12:45;;;;;;;;;;;;;;;36.43;23.85;100293.91;5048696;28;19929;-65
2022/08/05 11:15:19;;;;;;;;;;;;;;;37.27;23.13;100286.19;5058790;28;19935;-69
2022/08/05 11:17:46;;;;;;;;;;;;;;;38.86;21.00;100280.63;5041159;28;19935;-66
2022/08/05 11:20:30;;;;;;;;;;;;;;;39.85;20.01;100281.66;5052597;28;20410;-71
2022/08/05 11:22:55;;;;;;;;;;;;;;;39.63;20.17;100281.63;5033679;28;19974;-70
2022/08/05 11:25:32;;;;;;;;;;;;;;;37.62;22.07;100280.75;5051753;28;19929;-66
2022/08/05 11:28:17;;;;;;;;;;;;;;;35.99;24.09;100282.69;5059581;28;19938;-66
2022/08/05 11:31:01;;;;;;;;;;;;;;;35.15;25.41;100283.53;5061856;28;19924;-66
2022/08/05 11:33:28;;;;;;;;;;;;;;;34.54;25.71;100282.50;5063210;28;19925;-67
2022/08/05 11:35:54;;;;;;;;;;;;;;;33.97;26.34;100282.06;5043795;28;19989;-65
2022/08/05 11:38:51;;;;;;;;;;;;;;;33.35;26.81;100288.41;5060583;28;20053;-67
2022/08/05 11:41:19;;;;;;;;;;;;;;;32.89;27.63;100289.63;5059028;28;20631;-68
2022/08/05 11:43:53;;;;;;;;;;;;;;;32.66;27.22;100283.31;5073111;28;19958;-67
2022/08/05 11:46:23;;;;;;;;;;;;;;;32.56;27.21;100289.88;5029574;28;19967;-65
2022/08/05 11:48:49;;;;;;;;;;;;;;;32.57;26.65;100279.38;5048505;28;20039;-67
2022/08/05 11:51:15;;;;;;;;;;;;;;;32.95;26.03;100277.47;5069069;28;20478;-67
2022/08/05 11:53:42;;;;;;;;;;;;;;;34.69;23.64;100268.06;5044535;28;19929;-67
2022/08/05 11:56:07;;;;;;;;;;;;;;;35.99;22.35;100268.47;5068834;28;19986;-67
2022/08/05 11:58:41;;;;;;;;;;;;;;;35.95;22.81;100266.94;5047426;28;19932;-68
2022/08/05 12:01:07;;;;;;;;;;;;;;;37.17;21.63;100268.94;5070767;28;20212;-66
2022/08/05 12:03:40;;;;;;;;;;;;;;;38.77;19.94;100267.06;5069150;28;19983;-67
2022/08/05 12:06:06;;;;;;;;;;;;;;;39.14;19.55;100267.41;5049953;28;19959;-68
2022/08/05 12:08:32;;;;;;;;;;;;;;;38.18;20.53;100270.16;5067020;28;20476;-67
2022/08/05 12:10:59;;;;;;;;;;;;;;;36.83;22.00;100273.03;5066540;28;19932;-67
2022/08/05 12:13:25;;;;;;;;;;;;;;;35.88;22.96;100276.44;5058207;28;19929;-71
2022/08/05 12:15:52;;;;;;;;;;;;;;;35.59;23.43;100263.63;5049560;28;20023;-71
2022/08/05 12:18:17;;;;;;;;;;;;;;;35.10;23.56;100269.81;5054759;28;19963;-68
2022/08/05 12:20:44;;;;;;;;;;;;;;;35.45;23.41;100273.22;5059017;28;20517;-71
2022/08/05 12:23:10;;;;;;;;;;;;;;;37.38;21.66;100265.94;5045535;28;20330;-69
2022/08/05 12:25:47;;;;;;;;;;;;;;;38.16;20.40;100272.66;5060760;28;19963;-70
2022/08/05 12:28:28;;;;;;;;;;;;;;;37.22;21.45;100269.66;5067747;28;19974;-70
2022/08/05 12:30:56;;;;;;;;;;;;;;;35.89;22.11;100258.13;5068849;28;20395;-69
2022/08/05 12:33:22;;;;;;;;;;;;;;;34.92;23.51;100265.22;5067230;28;20024;-70
2022/08/05 12:35:48;;;;;;;;;;;;;;;34.36;23.78;100249.50;5065698;28;20382;-68
2022/08/05 12:38:14;;;;;;;;;;;;;;;34.74;23.69;100254.19;5044556;28;19963;-70